sensor_id;sensor_type;location;lat;lon;timestamp;pressure;altitude;pressure_sealevel;temperature;humidity
21664;BME280;10993;52.510;13.456;2023-08-31T00:03:23;57034.59;;;-146.93;82.91
21664;BME280;10993;52.510;13.456;2023-08-31T00:08:25;57034.59;;;-146.93;81.95
21664;BME280;10993;52.510;13.456;2023-08-31T00:13:26;57067.00;;;-146.93;81.42
21664;BME280;10993;52.510;13.456;2023-08-31T00:18:27;57040.69;;;-146.93;81.72
21664;BME280;10993;52.510;13.456;2023-08-31T00:23:28;57054.84;;;-146.93;81.90
21664;BME280;10993;52.510;13.456;2023-08-31T00:28:29;57034.59;;;-146.93;82.18
21664;BME280;10993;52.510;13.456;2023-08-31T00:33:30;57790.00;;;-146.93;82.30
21664;BME280;10993;52.510;13.456;2023-08-31T00:38:32;56988.03;;;-146.93;82.08
21664;BME280;10993;52.510;13.456;2023-08-31T00:43:32;57000.19;;;-146.93;82.33
21664;BME280;10993;52.510;13.456;2023-08-31T00:48:33;57016.38;;;-146.93;82.66
21664;BME280;10993;52.510;13.456;2023-08-31T00:53:35;57030.56;;;-146.93;82.64
21664;BME280;10993;52.510;13.456;2023-08-31T00:58:36;57008.28;;;-146.93;82.72
21664;BME280;10993;52.510;13.456;2023-08-31T01:03:42;57006.25;;;-146.93;83.01
21664;BME280;10993;52.510;13.456;2023-08-31T01:08:54;56947.53;;;-146.93;82.76
21664;BME280;10993;52.510;13.456;2023-08-31T01:14:01;56945.50;;;-146.93;83.77
21664;BME280;10993;52.510;13.456;2023-08-31T01:19:08;56979.94;;;-146.93;84.29
21664;BME280;10993;52.510;13.456;2023-08-31T01:24:17;57006.25;;;-146.93;84.32
21664;BME280;10993;52.510;13.456;2023-08-31T01:29:17;57028.53;;;-146.93;85.39
21664;BME280;10993;52.510;13.456;2023-08-31T01:34:18;57018.41;;;-146.93;86.79
21664;BME280;10993;52.510;13.456;2023-08-31T01:39:24;56864.50;;;-146.93;86.78
21664;BME280;10993;52.510;13.456;2023-08-31T01:44:28;57044.72;;;-146.93;86.48
21664;BME280;10993;52.510;13.456;2023-08-31T01:49:35;56975.88;;;-146.93;85.72
21664;BME280;10993;52.510;13.456;2023-08-31T01:54:37;57022.44;;;-146.93;87.54
21664;BME280;10993;52.510;13.456;2023-08-31T01:59:38;57012.31;;;-146.93;90.08
21664;BME280;10993;52.510;13.456;2023-08-31T02:04:38;56994.09;;;-146.93;91.29
21664;BME280;10993;52.510;13.456;2023-08-31T02:09:39;57058.91;;;-146.93;92.64
21664;BME280;10993;52.510;13.456;2023-08-31T02:14:40;57075.09;;;-146.93;93.74
21664;BME280;10993;52.510;13.456;2023-08-31T02:19:40;57101.44;;;-146.93;94.51
21664;BME280;10993;52.510;13.456;2023-08-31T02:24:42;57075.09;;;-146.93;94.91
21664;BME280;10993;52.510;13.456;2023-08-31T02:29:42;57058.91;;;-146.93;94.08
21664;BME280;10993;52.510;13.456;2023-08-31T02:34:43;57030.56;;;-146.93;93.26
21664;BME280;10993;52.510;13.456;2023-08-31T02:39:44;56941.44;;;-146.93;93.27
21664;BME280;10993;52.510;13.456;2023-08-31T02:44:45;57026.50;;;-146.93;93.58
21664;BME280;10993;52.510;13.456;2023-08-31T02:49:45;56917.16;;;-146.93;94.27
21664;BME280;10993;52.510;13.456;2023-08-31T02:54:47;57030.56;;;-146.93;95.20
21664;BME280;10993;52.510;13.456;2023-08-31T02:59:49;57131.81;;;-146.93;95.60
21664;BME280;10993;52.510;13.456;2023-08-31T03:04:50;57178.38;;;-146.93;95.96
21664;BME280;10993;52.510;13.456;2023-08-31T03:09:51;57194.56;;;-146.93;96.46
21664;BME280;10993;52.510;13.456;2023-08-31T03:14:52;57269.50;;;-146.93;97.05
21664;BME280;10993;52.510;13.456;2023-08-31T03:19:52;57277.59;;;-146.93;97.24
21664;BME280;10993;52.510;13.456;2023-08-31T03:24:54;57188.50;;;-146.93;98.14
21664;BME280;10993;52.510;13.456;2023-08-31T03:29:54;57393.03;;;-146.93;98.08
21664;BME280;10993;52.510;13.456;2023-08-31T03:34:55;57391.00;;;-146.93;97.80
21664;BME280;10993;52.510;13.456;2023-08-31T03:39:56;57289.75;;;-146.93;97.31
21664;BME280;10993;52.510;13.456;2023-08-31T03:44:57;57200.66;;;-146.93;96.68
21664;BME280;10993;52.510;13.456;2023-08-31T03:49:57;57154.06;;;-146.93;95.84
21664;BME280;10993;52.510;13.456;2023-08-31T03:54:59;57026.50;;;-146.93;95.30
21664;BME280;10993;52.510;13.456;2023-08-31T03:59:59;57763.66;;;-146.93;96.15
21664;BME280;10993;52.510;13.456;2023-08-31T04:04:59;57119.66;;;-146.93;96.38
21664;BME280;10993;52.510;13.456;2023-08-31T04:10:01;57164.19;;;-146.93;95.93
21664;BME280;10993;52.510;13.456;2023-08-31T04:15:02;57251.28;;;-146.93;96.95
21664;BME280;10993;52.510;13.456;2023-08-31T04:20:05;57348.50;;;-146.93;97.76
21664;BME280;10993;52.510;13.456;2023-08-31T04:25:07;57553.03;;;-146.93;98.27
21664;BME280;10993;52.510;13.456;2023-08-31T04:30:08;57573.28;;;-146.93;99.01
21664;BME280;10993;52.510;13.456;2023-08-31T04:35:09;57684.69;;;-146.93;99.36
21664;BME280;10993;52.510;13.456;2023-08-31T04:40:11;57650.25;;;-146.93;99.14
21664;BME280;10993;52.510;13.456;2023-08-31T04:45:12;57658.34;;;-146.93;99.46
21664;BME280;10993;52.510;13.456;2023-08-31T04:50:13;57704.94;;;-146.93;99.48
21664;BME280;10993;52.510;13.456;2023-08-31T04:55:14;57808.22;;;-146.93;99.82
21664;BME280;10993;52.510;13.456;2023-08-31T05:00:15;57935.84;;;-146.93;100.00
21664;BME280;10993;52.510;13.456;2023-08-31T05:05:16;57998.63;;;-146.93;100.00
21664;BME280;10993;52.510;13.456;2023-08-31T05:10:19;58132.31;;;-146.93;100.00
21664;BME280;10993;52.510;13.456;2023-08-31T05:15:20;57966.22;;;-146.93;100.00
21664;BME280;10993;52.510;13.456;2023-08-31T05:20:20;57862.91;;;-146.93;99.76
21664;BME280;10993;52.510;13.456;2023-08-31T05:25:24;57731.25;;;-146.93;98.79
21664;BME280;10993;52.510;13.456;2023-08-31T05:30:24;57455.81;;;-146.93;97.21
21664;BME280;10993;52.510;13.456;2023-08-31T05:35:24;57261.41;;;-146.93;96.56
21664;BME280;10993;52.510;13.456;2023-08-31T05:40:26;57342.41;;;-146.93;97.00
21664;BME280;10993;52.510;13.456;2023-08-31T05:45:26;57322.16;;;-146.93;97.40
21664;BME280;10993;52.510;13.456;2023-08-31T05:50:27;57366.72;;;-146.93;97.86
21664;BME280;10993;52.510;13.456;2023-08-31T05:55:29;57378.88;;;-146.93;98.25
21664;BME280;10993;52.510;13.456;2023-08-31T06:00:29;57441.66;;;-146.93;98.00
21664;BME280;10993;52.510;13.456;2023-08-31T06:05:29;57318.09;;;-146.93;97.70
21664;BME280;10993;52.510;13.456;2023-08-31T06:10:33;57243.19;;;-146.93;97.08
21664;BME280;10993;52.510;13.456;2023-08-31T06:15:33;57281.66;;;-146.93;96.33
21664;BME280;10993;52.510;13.456;2023-08-31T06:20:33;57198.63;;;-146.93;94.54
21664;BME280;10993;52.510;13.456;2023-08-31T06:25:35;57079.16;;;-146.93;93.45
21664;BME280;10993;52.510;13.456;2023-08-31T06:30:35;57099.41;;;-146.93;92.96
21664;BME280;10993;52.510;13.456;2023-08-31T06:35:36;57099.41;;;-146.93;92.56
21664;BME280;10993;52.510;13.456;2023-08-31T06:40:39;57062.94;;;-146.93;92.42
21664;BME280;10993;52.510;13.456;2023-08-31T06:45:41;57064.97;;;-146.93;91.38
21664;BME280;10993;52.510;13.456;2023-08-31T06:50:41;57073.06;;;-146.93;89.34
21664;BME280;10993;52.510;13.456;2023-08-31T06:55:43;57119.66;;;-146.93;85.46
21664;BME280;10993;52.510;13.456;2023-08-31T07:00:45;57085.22;;;-146.93;83.68
21664;BME280;10993;52.510;13.456;2023-08-31T07:05:45;57137.88;;;-146.93;83.34
21664;BME280;10993;52.510;13.456;2023-08-31T07:10:49;57099.41;;;-146.93;82.87
21664;BME280;10993;52.510;13.456;2023-08-31T07:15:50;57103.44;;;-146.93;82.70
21664;BME280;10993;52.510;13.456;2023-08-31T07:20:50;57145.97;;;-146.93;82.47
21664;BME280;10993;52.510;13.456;2023-08-31T07:25:52;57079.16;;;-146.93;81.58
21664;BME280;10993;52.510;13.456;2023-08-31T07:31:00;57064.97;;;-146.93;80.54
21664;BME280;10993;52.510;13.456;2023-08-31T07:36:01;57192.56;;;-146.93;77.21
21664;BME280;10993;52.510;13.456;2023-08-31T07:41:04;57224.97;;;-146.93;77.07
21664;BME280;10993;52.510;13.456;2023-08-31T07:46:04;57196.59;;;-146.93;75.67
21664;BME280;10993;52.510;13.456;2023-08-31T07:51:05;57245.22;;;-146.93;73.76
21664;BME280;10993;52.510;13.456;2023-08-31T07:56:07;57212.81;;;-146.93;72.90
21664;BME280;10993;52.510;13.456;2023-08-31T08:01:07;57303.94;;;-146.93;71.46
21664;BME280;10993;52.510;13.456;2023-08-31T08:06:08;57368.75;;;-146.93;67.72
21664;BME280;10993;52.510;13.456;2023-08-31T08:11:10;57613.78;;;-146.93;61.18
21664;BME280;10993;52.510;13.456;2023-08-31T08:16:10;57848.75;;;-146.93;55.59
21664;BME280;10993;52.510;13.456;2023-08-31T08:21:10;58217.41;;;-146.93;45.97
21664;BME280;10993;52.510;13.456;2023-08-31T08:26:12;59266.84;;;-146.93;36.55
21664;BME280;10993;52.510;13.456;2023-08-31T08:31:12;59607.28;;;-146.93;35.24
21664;BME280;10993;52.510;13.456;2023-08-31T08:36:12;59380.34;;;-146.93;35.07
21664;BME280;10993;52.510;13.456;2023-08-31T08:41:15;59378.31;;;-146.93;34.93
21664;BME280;10993;52.510;13.456;2023-08-31T08:46:19;59242.53;;;-146.93;36.21
21664;BME280;10993;52.510;13.456;2023-08-31T08:51:20;58561.78;;;-146.93;37.60
21664;BME280;10993;52.510;13.456;2023-08-31T08:56:22;58498.97;;;-146.93;37.99
21664;BME280;10993;52.510;13.456;2023-08-31T09:01:23;58306.53;;;-146.93;39.51
21664;BME280;10993;52.510;13.456;2023-08-31T09:06:23;58142.44;;;-146.93;39.98
21664;BME280;10993;52.510;13.456;2023-08-31T09:11:25;57972.28;;;-146.93;42.18
21664;BME280;10993;52.510;13.456;2023-08-31T09:16:28;58075.59;;;-146.93;41.01
21664;BME280;10993;52.510;13.456;2023-08-31T09:21:35;58831.22;;;-146.93;37.34
21664;BME280;10993;52.510;13.456;2023-08-31T09:26:39;59799.81;;;-146.93;32.59
21664;BME280;10993;52.510;13.456;2023-08-31T09:31:41;59955.88;;;-146.93;30.56
21664;BME280;10993;52.510;13.456;2023-08-31T09:36:43;59779.56;;;-146.93;30.95
21664;BME280;10993;52.510;13.456;2023-08-31T09:41:54;58650.91;;;-146.93;34.47
21664;BME280;10993;52.510;13.456;2023-08-31T09:46:55;58594.19;;;-146.93;35.84
21664;BME280;10993;52.510;13.456;2023-08-31T09:51:58;59899.13;;;-146.93;31.20
21664;BME280;10993;52.510;13.456;2023-08-31T09:57:04;60853.81;;;-146.93;29.32
21664;BME280;10993;52.510;13.456;2023-08-31T10:02:05;60436.25;;;-146.93;29.52
21664;BME280;10993;52.510;13.456;2023-08-31T10:07:08;60397.72;;;-146.93;28.51
21664;BME280;10993;52.510;13.456;2023-08-31T10:12:11;60594.34;;;-146.93;28.14
21664;BME280;10993;52.510;13.456;2023-08-31T10:17:12;59850.50;;;-146.93;28.80
21664;BME280;10993;52.510;13.456;2023-08-31T10:22:12;60282.19;;;-146.93;27.94
21664;BME280;10993;52.510;13.456;2023-08-31T10:27:20;61239.03;;;-146.93;25.95
21664;BME280;10993;52.510;13.456;2023-08-31T10:32:21;59996.41;;;-146.93;28.50
21664;BME280;10993;52.510;13.456;2023-08-31T10:37:22;59459.38;;;-146.93;29.15
21664;BME280;10993;52.510;13.456;2023-08-31T10:42:24;58381.47;;;-146.93;31.49
21664;BME280;10993;52.510;13.456;2023-08-31T10:47:36;57666.44;;;-146.93;56.34
21664;BME280;10993;52.510;13.456;2023-08-31T10:52:43;57210.78;;;-146.93;73.30
21664;BME280;10993;52.510;13.456;2023-08-31T10:57:45;57099.41;;;-146.93;79.73
21664;BME280;10993;52.510;13.456;2023-08-31T11:02:46;57119.66;;;-146.93;81.42
21664;BME280;10993;52.510;13.456;2023-08-31T11:07:48;57030.56;;;-146.93;81.54
21664;BME280;10993;52.510;13.456;2023-08-31T11:12:52;57087.25;;;-146.93;81.99
21664;BME280;10993;52.510;13.456;2023-08-31T11:17:54;57071.06;;;-146.93;81.31
21664;BME280;10993;52.510;13.456;2023-08-31T11:22:55;57143.94;;;-146.93;77.14
21664;BME280;10993;52.510;13.456;2023-08-31T11:27:58;57737.34;;;-146.93;65.23
21664;BME280;10993;52.510;13.456;2023-08-31T11:33:02;58531.38;;;-146.93;48.22
21664;BME280;10993;52.510;13.456;2023-08-31T11:38:04;58997.38;;;-146.93;37.59
21664;BME280;10993;52.510;13.456;2023-08-31T11:43:05;59698.50;;;-146.93;35.22
21664;BME280;10993;52.510;13.456;2023-08-31T11:48:09;59587.03;;;-146.93;33.92
21664;BME280;10993;52.510;13.456;2023-08-31T11:53:09;59025.75;;;-146.93;35.27
21664;BME280;10993;52.510;13.456;2023-08-31T11:58:11;59254.69;;;-146.93;37.50
21664;BME280;10993;52.510;13.456;2023-08-31T12:03:12;59007.50;;;-146.93;38.27
21664;BME280;10993;52.510;13.456;2023-08-31T12:08:12;58229.53;;;-146.93;48.40
21664;BME280;10993;52.510;13.456;2023-08-31T12:13:14;57259.38;;;-146.93;71.09
21664;BME280;10993;52.510;13.456;2023-08-31T12:18:14;57046.75;;;-146.93;82.23
21664;BME280;10993;52.510;13.456;2023-08-31T12:23:15;57192.56;;;-146.93;89.35
21664;BME280;10993;52.510;13.456;2023-08-31T12:28:17;57393.03;;;-146.93;89.09
21664;BME280;10993;52.510;13.456;2023-08-31T12:33:20;57354.56;;;-146.93;71.49
21664;BME280;10993;52.510;13.456;2023-08-31T12:38:20;57350.50;;;-146.93;73.30
21664;BME280;10993;52.510;13.456;2023-08-31T12:43:23;57429.50;;;-146.93;71.54
21664;BME280;10993;52.510;13.456;2023-08-31T12:48:23;57366.72;;;-146.93;70.00
21664;BME280;10993;52.510;13.456;2023-08-31T12:53:24;57257.34;;;-146.93;75.74
21664;BME280;10993;52.510;13.456;2023-08-31T12:58:25;57322.16;;;-146.93;76.64
21664;BME280;10993;52.510;13.456;2023-08-31T13:03:26;57245.22;;;-146.93;70.35
21664;BME280;10993;52.510;13.456;2023-08-31T13:08:26;57415.31;;;-146.93;67.27
21664;BME280;10993;52.510;13.456;2023-08-31T13:13:28;57378.88;;;-146.93;65.52
21664;BME280;10993;52.510;13.456;2023-08-31T13:18:29;57350.50;;;-146.93;61.00
21664;BME280;10993;52.510;13.456;2023-08-31T13:23:29;57342.41;;;-146.93;61.67
21664;BME280;10993;52.510;13.456;2023-08-31T13:28:31;57346.47;;;-146.93;63.46
21664;BME280;10993;52.510;13.456;2023-08-31T13:33:32;57265.47;;;-146.93;62.22
21664;BME280;10993;52.510;13.456;2023-08-31T13:38:32;57259.38;;;-146.93;59.34
21664;BME280;10993;52.510;13.456;2023-08-31T13:43:34;57241.16;;;-146.93;62.56
21664;BME280;10993;52.510;13.456;2023-08-31T13:48:34;57269.50;;;-146.93;56.91
21664;BME280;10993;52.510;13.456;2023-08-31T13:53:35;57295.84;;;-146.93;59.39
21664;BME280;10993;52.510;13.456;2023-08-31T13:58:36;57257.34;;;-146.93;58.75
21664;BME280;10993;52.510;13.456;2023-08-31T14:03:37;57229.00;;;-146.93;60.46
21664;BME280;10993;52.510;13.456;2023-08-31T14:08:37;57125.72;;;-146.93;59.75
21664;BME280;10993;52.510;13.456;2023-08-31T14:13:39;57099.41;;;-146.93;60.04
21664;BME280;10993;52.510;13.456;2023-08-31T14:18:40;57271.53;;;-146.93;59.92
21664;BME280;10993;52.510;13.456;2023-08-31T14:23:40;57277.59;;;-146.93;54.74
21664;BME280;10993;52.510;13.456;2023-08-31T14:28:42;57350.50;;;-146.93;54.02
21664;BME280;10993;52.510;13.456;2023-08-31T14:33:43;57354.56;;;-146.93;52.65
21664;BME280;10993;52.510;13.456;2023-08-31T14:38:44;57395.06;;;-146.93;51.43
21664;BME280;10993;52.510;13.456;2023-08-31T14:43:47;57354.56;;;-146.93;50.48
21664;BME280;10993;52.510;13.456;2023-08-31T14:48:47;57338.38;;;-146.93;49.14
21664;BME280;10993;52.510;13.456;2023-08-31T14:53:47;57386.97;;;-146.93;47.93
21664;BME280;10993;52.510;13.456;2023-08-31T14:58:49;57419.38;;;-146.93;46.36
21664;BME280;10993;52.510;13.456;2023-08-31T15:03:49;57461.91;;;-146.93;44.81
21664;BME280;10993;52.510;13.456;2023-08-31T15:08:50;57401.16;;;-146.93;46.88
21664;BME280;10993;52.510;13.456;2023-08-31T15:13:51;57374.81;;;-146.93;47.89
21664;BME280;10993;52.510;13.456;2023-08-31T15:18:52;57283.69;;;-146.93;49.93
21664;BME280;10993;52.510;13.456;2023-08-31T15:23:52;57362.66;;;-146.93;49.72
21664;BME280;10993;52.510;13.456;2023-08-31T15:28:54;57449.75;;;-146.93;49.50
21664;BME280;10993;52.510;13.456;2023-08-31T15:33:54;57449.75;;;-146.93;46.00
21664;BME280;10993;52.510;13.456;2023-08-31T15:38:55;57508.47;;;-146.93;47.51
21664;BME280;10993;52.510;13.456;2023-08-31T15:43:56;57380.88;;;-146.93;46.97
21664;BME280;10993;52.510;13.456;2023-08-31T15:48:57;57273.56;;;-146.93;48.52
21664;BME280;10993;52.510;13.456;2023-08-31T15:53:57;57362.66;;;-146.93;48.80
21664;BME280;10993;52.510;13.456;2023-08-31T15:58:59;57346.47;;;-146.93;48.39
21664;BME280;10993;52.510;13.456;2023-08-31T16:03:59;57259.38;;;-146.93;49.45
21664;BME280;10993;52.510;13.456;2023-08-31T16:09:00;57168.25;;;-146.93;50.41
21664;BME280;10993;52.510;13.456;2023-08-31T16:14:01;57176.34;;;-146.93;52.70
21664;BME280;10993;52.510;13.456;2023-08-31T16:19:02;57121.69;;;-146.93;55.65
21664;BME280;10993;52.510;13.456;2023-08-31T16:24:03;57067.00;;;-146.93;56.19
21664;BME280;10993;52.510;13.456;2023-08-31T16:29:05;57018.41;;;-146.93;56.60
21664;BME280;10993;52.510;13.456;2023-08-31T16:34:05;56986.00;;;-146.93;58.02
21664;BME280;10993;52.510;13.456;2023-08-31T16:39:05;56947.53;;;-146.93;55.08
21664;BME280;10993;52.510;13.456;2023-08-31T16:44:07;56998.16;;;-146.93;54.76
21664;BME280;10993;52.510;13.456;2023-08-31T16:49:07;57038.66;;;-146.93;55.94
21664;BME280;10993;52.510;13.456;2023-08-31T16:54:08;57022.44;;;-146.93;56.22
21664;BME280;10993;52.510;13.456;2023-08-31T16:59:09;56998.16;;;-146.93;63.84
21664;BME280;10993;52.510;13.456;2023-08-31T17:04:10;56892.84;;;-146.93;73.94
21664;BME280;10993;52.510;13.456;2023-08-31T17:09:10;56838.19;;;-146.93;78.23
21664;BME280;10993;52.510;13.456;2023-08-31T17:14:12;56791.63;;;-146.93;81.24
21664;BME280;10993;52.510;13.456;2023-08-31T17:19:14;56732.91;;;-146.93;84.18
21664;BME280;10993;52.510;13.456;2023-08-31T17:24:15;56824.00;;;-146.93;85.41
21664;BME280;10993;52.510;13.456;2023-08-31T17:29:16;56738.97;;;-146.93;84.33
21664;BME280;10993;52.510;13.456;2023-08-31T17:34:17;56605.34;;;-146.93;85.29
21664;BME280;10993;52.510;13.456;2023-08-31T17:39:19;56741.00;;;-146.93;85.47
21664;BME280;10993;52.510;13.456;2023-08-31T17:44:22;56712.66;;;-146.93;83.49
21664;BME280;10993;52.510;13.456;2023-08-31T17:49:25;56767.31;;;-146.93;82.65
21664;BME280;10993;52.510;13.456;2023-08-31T17:54:25;56722.78;;;-146.93;83.29
21664;BME280;10993;52.510;13.456;2023-08-31T17:59:27;56749.09;;;-146.93;83.00
21664;BME280;10993;52.510;13.456;2023-08-31T18:04:27;56732.91;;;-146.93;84.25
21664;BME280;10993;52.510;13.456;2023-08-31T18:09:28;56738.97;;;-146.93;86.42
21664;BME280;10993;52.510;13.456;2023-08-31T18:14:32;56603.31;;;-146.93;88.37
21664;BME280;10993;52.510;13.456;2023-08-31T18:19:32;56706.56;;;-146.93;89.82
21664;BME280;10993;52.510;13.456;2023-08-31T18:24:35;56761.25;;;-146.93;90.73
21664;BME280;10993;52.510;13.456;2023-08-31T18:29:38;56690.38;;;-146.93;92.06
21664;BME280;10993;52.510;13.456;2023-08-31T18:34:38;56807.81;;;-146.93;91.29
21664;BME280;10993;52.510;13.456;2023-08-31T18:39:39;56706.56;;;-146.93;89.88
21664;BME280;10993;52.510;13.456;2023-08-31T18:44:41;56811.88;;;-146.93;90.07
21664;BME280;10993;52.510;13.456;2023-08-31T18:49:41;56718.72;;;-146.93;88.17
21664;BME280;10993;52.510;13.456;2023-08-31T18:54:42;56514.22;;;-146.93;87.48
21664;BME280;10993;52.510;13.456;2023-08-31T18:59:44;56747.06;;;-146.93;87.86
21664;BME280;10993;52.510;13.456;2023-08-31T19:04:45;56686.31;;;-146.93;88.28
21664;BME280;10993;52.510;13.456;2023-08-31T19:09:51;56591.16;;;-146.93;89.11
21664;BME280;10993;52.510;13.456;2023-08-31T19:14:53;56716.69;;;-146.93;89.54
21664;BME280;10993;52.510;13.456;2023-08-31T19:19:54;56637.72;;;-146.93;89.88
21664;BME280;10993;52.510;13.456;2023-08-31T19:24:54;56686.31;;;-146.93;89.98
21664;BME280;10993;52.510;13.456;2023-08-31T19:29:56;56763.28;;;-146.93;90.17
21664;BME280;10993;52.510;13.456;2023-08-31T19:34:56;56761.25;;;-146.93;90.43
21664;BME280;10993;52.510;13.456;2023-08-31T19:39:57;56698.47;;;-146.93;89.91
21664;BME280;10993;52.510;13.456;2023-08-31T19:44:59;56726.81;;;-146.93;90.16
21664;BME280;10993;52.510;13.456;2023-08-31T19:49:59;56736.94;;;-146.93;90.32
21664;BME280;10993;52.510;13.456;2023-08-31T19:55:00;56710.63;;;-146.93;90.05
21664;BME280;10993;52.510;13.456;2023-08-31T20:00:02;56664.06;;;-146.93;89.86
21664;BME280;10993;52.510;13.456;2023-08-31T20:05:04;57581.38;;;-146.93;89.98
21664;BME280;10993;52.510;13.456;2023-08-31T20:10:05;56726.81;;;-146.93;90.31
21664;BME280;10993;52.510;13.456;2023-08-31T20:15:08;56714.66;;;-146.93;90.98
21664;BME280;10993;52.510;13.456;2023-08-31T20:20:10;56633.69;;;-146.93;90.20
21664;BME280;10993;52.510;13.456;2023-08-31T20:25:11;56702.53;;;-146.93;89.48
21664;BME280;10993;52.510;13.456;2023-08-31T20:30:16;56905.00;;;-146.93;89.41
21664;BME280;10993;52.510;13.456;2023-08-31T20:35:17;56751.13;;;-146.93;89.91
21664;BME280;10993;52.510;13.456;2023-08-31T20:40:17;56751.13;;;-146.93;89.97
21664;BME280;10993;52.510;13.456;2023-08-31T20:45:19;56730.88;;;-146.93;91.00
21664;BME280;10993;52.510;13.456;2023-08-31T20:50:19;56736.94;;;-146.93;91.67
21664;BME280;10993;52.510;13.456;2023-08-31T20:55:23;56765.28;;;-146.93;91.88
21664;BME280;10993;52.510;13.456;2023-08-31T21:00:24;56722.78;;;-146.93;91.69
21664;BME280;10993;52.510;13.456;2023-08-31T21:05:25;56787.56;;;-146.93;92.11
21664;BME280;10993;52.510;13.456;2023-08-31T21:10:25;56747.06;;;-146.93;92.04
21664;BME280;10993;52.510;13.456;2023-08-31T21:15:27;56761.25;;;-146.93;91.60
21664;BME280;10993;52.510;13.456;2023-08-31T21:20:27;56805.78;;;-146.93;90.85
21664;BME280;10993;52.510;13.456;2023-08-31T21:25:28;56779.47;;;-146.93;90.55
21664;BME280;10993;52.510;13.456;2023-08-31T21:30:30;56751.13;;;-146.93;90.12
21664;BME280;10993;52.510;13.456;2023-08-31T21:35:39;56625.59;;;-146.93;89.77
21664;BME280;10993;52.510;13.456;2023-08-31T21:40:41;56747.06;;;-146.93;89.75
21664;BME280;10993;52.510;13.456;2023-08-31T21:45:43;56787.56;;;-146.93;89.00
21664;BME280;10993;52.510;13.456;2023-08-31T21:50:43;56724.78;;;-146.93;88.81
21664;BME280;10993;52.510;13.456;2023-08-31T21:55:44;56795.66;;;-146.93;88.07
21664;BME280;10993;52.510;13.456;2023-08-31T22:00:45;56783.50;;;-146.93;87.83
21664;BME280;10993;52.510;13.456;2023-08-31T22:05:46;56755.16;;;-146.93;86.97
21664;BME280;10993;52.510;13.456;2023-08-31T22:10:46;56777.44;;;-146.93;87.16
21664;BME280;10993;52.510;13.456;2023-08-31T22:15:48;56777.44;;;-146.93;86.53
21664;BME280;10993;52.510;13.456;2023-08-31T22:20:52;56718.72;;;-146.93;87.44
21664;BME280;10993;52.510;13.456;2023-08-31T22:25:52;56724.78;;;-146.93;87.08
21664;BME280;10993;52.510;13.456;2023-08-31T22:30:54;56757.19;;;-146.93;88.00
21664;BME280;10993;52.510;13.456;2023-08-31T22:35:54;56747.06;;;-146.93;87.95
21664;BME280;10993;52.510;13.456;2023-08-31T22:40:55;56736.94;;;-146.93;88.11
21664;BME280;10993;52.510;13.456;2023-08-31T22:45:57;56763.28;;;-146.93;88.78
21664;BME280;10993;52.510;13.456;2023-08-31T22:50:58;56819.97;;;-146.93;88.84
21664;BME280;10993;52.510;13.456;2023-08-31T22:55:58;56745.03;;;-146.93;89.59
21664;BME280;10993;52.510;13.456;2023-08-31T23:01:01;56657.97;;;-146.93;90.42
21664;BME280;10993;52.510;13.456;2023-08-31T23:06:03;56732.91;;;-146.93;91.19
21664;BME280;10993;52.510;13.456;2023-08-31T23:11:03;56755.16;;;-146.93;91.29
21664;BME280;10993;52.510;13.456;2023-08-31T23:16:06;56741.00;;;-146.93;92.12
21664;BME280;10993;52.510;13.456;2023-08-31T23:21:07;56749.09;;;-146.93;92.13
21664;BME280;10993;52.510;13.456;2023-08-31T23:26:08;56698.47;;;-146.93;92.83
21664;BME280;10993;52.510;13.456;2023-08-31T23:31:09;56783.50;;;-146.93;93.87
21664;BME280;10993;52.510;13.456;2023-08-31T23:36:10;56761.25;;;-146.93;93.70
21664;BME280;10993;52.510;13.456;2023-08-31T23:41:10;56694.41;;;-146.93;94.09
21664;BME280;10993;52.510;13.456;2023-08-31T23:46:12;56738.97;;;-146.93;94.98
21664;BME280;10993;52.510;13.456;2023-08-31T23:51:13;56793.63;;;-146.93;94.89
21664;BME280;10993;52.510;13.456;2023-08-31T23:56:13;56791.63;;;-146.93;94.97
